sensor_id;sensor_type;location;lat;lon;timestamp;P1;durP1;ratioP1;P2;durP2;ratioP2
20511;SDS011;10414;52.074;5.126;2024-01-30T00:00:48;20.80;;;9.52;;
20511;SDS011;10414;52.074;5.126;2024-01-30T00:03:14;20.75;;;9.95;;
20511;SDS011;10414;52.074;5.126;2024-01-30T00:05:41;20.52;;;10.23;;
20511;SDS011;10414;52.074;5.126;2024-01-30T00:08:09;16.17;;;8.73;;
20511;SDS011;10414;52.074;5.126;2024-01-30T00:10:36;19.65;;;10.52;;
20511;SDS011;10414;52.074;5.126;2024-01-30T00:13:03;18.90;;;9.80;;
20511;SDS011;10414;52.074;5.126;2024-01-30T00:15:30;20.58;;;10.05;;
20511;SDS011;10414;52.074;5.126;2024-01-30T00:17:57;17.50;;;9.32;;
20511;SDS011;10414;52.074;5.126;2024-01-30T00:20:24;17.83;;;9.73;;
20511;SDS011;10414;52.074;5.126;2024-01-30T00:22:51;19.77;;;10.02;;
20511;SDS011;10414;52.074;5.126;2024-01-30T00:25:19;20.85;;;10.00;;
20511;SDS011;10414;52.074;5.126;2024-01-30T00:27:46;21.25;;;9.90;;
20511;SDS011;10414;52.074;5.126;2024-01-30T00:30:13;21.05;;;9.43;;
20511;SDS011;10414;52.074;5.126;2024-01-30T00:32:40;17.45;;;9.60;;
20511;SDS011;10414;52.074;5.126;2024-01-30T00:35:07;19.42;;;9.90;;
20511;SDS011;10414;52.074;5.126;2024-01-30T00:37:35;19.55;;;10.13;;
20511;SDS011;10414;52.074;5.126;2024-01-30T00:40:02;20.20;;;9.80;;
20511;SDS011;10414;52.074;5.126;2024-01-30T00:42:32;18.92;;;9.23;;
20511;SDS011;10414;52.074;5.126;2024-01-30T00:44:59;21.33;;;9.60;;
20511;SDS011;10414;52.074;5.126;2024-01-30T00:47:26;20.13;;;9.98;;
20511;SDS011;10414;52.074;5.126;2024-01-30T00:49:54;18.48;;;9.65;;
20511;SDS011;10414;52.074;5.126;2024-01-30T00:52:21;19.02;;;9.48;;
20511;SDS011;10414;52.074;5.126;2024-01-30T00:54:47;17.83;;;8.98;;
20511;SDS011;10414;52.074;5.126;2024-01-30T00:57:14;17.73;;;9.20;;
20511;SDS011;10414;52.074;5.126;2024-01-30T00:59:42;15.52;;;8.85;;
20511;SDS011;10414;52.074;5.126;2024-01-30T01:02:09;17.90;;;8.95;;
20511;SDS011;10414;52.074;5.126;2024-01-30T01:04:36;14.40;;;7.53;;
20511;SDS011;10414;52.074;5.126;2024-01-30T01:07:03;20.75;;;9.77;;
20511;SDS011;10414;52.074;5.126;2024-01-30T01:09:30;17.27;;;9.63;;
20511;SDS011;10414;52.074;5.126;2024-01-30T01:11:57;18.70;;;9.27;;
20511;SDS011;10414;52.074;5.126;2024-01-30T01:14:24;15.80;;;9.00;;
20511;SDS011;10414;52.074;5.126;2024-01-30T01:16:52;15.93;;;8.93;;
20511;SDS011;10414;52.074;5.126;2024-01-30T01:19:19;16.70;;;8.93;;
20511;SDS011;10414;52.074;5.126;2024-01-30T01:21:45;18.27;;;9.25;;
20511;SDS011;10414;52.074;5.126;2024-01-30T01:24:12;15.65;;;9.02;;
20511;SDS011;10414;52.074;5.126;2024-01-30T01:26:39;16.40;;;8.88;;
20511;SDS011;10414;52.074;5.126;2024-01-30T01:29:06;16.70;;;8.95;;
20511;SDS011;10414;52.074;5.126;2024-01-30T01:31:35;16.90;;;9.02;;
20511;SDS011;10414;52.074;5.126;2024-01-30T01:34:06;18.10;;;8.93;;
20511;SDS011;10414;52.074;5.126;2024-01-30T01:36:33;19.00;;;8.93;;
20511;SDS011;10414;52.074;5.126;2024-01-30T01:39:00;17.67;;;8.65;;
20511;SDS011;10414;52.074;5.126;2024-01-30T01:41:29;17.13;;;8.45;;
20511;SDS011;10414;52.074;5.126;2024-01-30T01:43:56;17.38;;;8.93;;
20511;SDS011;10414;52.074;5.126;2024-01-30T01:46:26;15.98;;;8.05;;
20511;SDS011;10414;52.074;5.126;2024-01-30T01:48:53;16.05;;;8.50;;
20511;SDS011;10414;52.074;5.126;2024-01-30T01:51:23;17.10;;;8.60;;
20511;SDS011;10414;52.074;5.126;2024-01-30T01:53:53;21.50;;;8.93;;
20511;SDS011;10414;52.074;5.126;2024-01-30T01:56:21;17.13;;;8.63;;
20511;SDS011;10414;52.074;5.126;2024-01-30T01:58:48;14.85;;;8.27;;
20511;SDS011;10414;52.074;5.126;2024-01-30T02:01:17;18.00;;;9.10;;
20511;SDS011;10414;52.074;5.126;2024-01-30T02:03:45;15.70;;;8.38;;
20511;SDS011;10414;52.074;5.126;2024-01-30T02:06:12;17.88;;;8.73;;
20511;SDS011;10414;52.074;5.126;2024-01-30T02:08:42;18.85;;;8.35;;
20511;SDS011;10414;52.074;5.126;2024-01-30T02:11:09;17.13;;;8.90;;
20511;SDS011;10414;52.074;5.126;2024-01-30T02:13:36;16.02;;;8.40;;
20511;SDS011;10414;52.074;5.126;2024-01-30T02:16:03;17.23;;;8.85;;
20511;SDS011;10414;52.074;5.126;2024-01-30T02:18:31;19.38;;;9.02;;
20511;SDS011;10414;52.074;5.126;2024-01-30T02:20:58;16.00;;;8.60;;
20511;SDS011;10414;52.074;5.126;2024-01-30T02:23:28;13.63;;;7.93;;
20511;SDS011;10414;52.074;5.126;2024-01-30T02:25:55;14.93;;;8.48;;
20511;SDS011;10414;52.074;5.126;2024-01-30T02:28:22;15.38;;;8.88;;
20511;SDS011;10414;52.074;5.126;2024-01-30T02:30:48;16.00;;;8.90;;
20511;SDS011;10414;52.074;5.126;2024-01-30T02:33:15;17.88;;;8.60;;
20511;SDS011;10414;52.074;5.126;2024-01-30T02:35:42;16.63;;;8.30;;
20511;SDS011;10414;52.074;5.126;2024-01-30T02:38:09;16.90;;;8.85;;
20511;SDS011;10414;52.074;5.126;2024-01-30T02:40:37;14.52;;;8.27;;
20511;SDS011;10414;52.074;5.126;2024-01-30T02:43:04;15.88;;;9.15;;
20511;SDS011;10414;52.074;5.126;2024-01-30T02:45:31;17.38;;;9.27;;
20511;SDS011;10414;52.074;5.126;2024-01-30T02:47:58;18.17;;;9.55;;
20511;SDS011;10414;52.074;5.126;2024-01-30T02:50:25;16.58;;;9.23;;
20511;SDS011;10414;52.074;5.126;2024-01-30T02:52:52;16.65;;;8.43;;
20511;SDS011;10414;52.074;5.126;2024-01-30T02:55:18;18.42;;;8.77;;
20511;SDS011;10414;52.074;5.126;2024-01-30T02:57:47;16.98;;;8.10;;
20511;SDS011;10414;52.074;5.126;2024-01-30T03:00:14;15.27;;;8.35;;
20511;SDS011;10414;52.074;5.126;2024-01-30T03:02:41;15.02;;;8.60;;
20511;SDS011;10414;52.074;5.126;2024-01-30T03:05:07;16.85;;;8.95;;
20511;SDS011;10414;52.074;5.126;2024-01-30T03:07:34;16.25;;;8.90;;
20511;SDS011;10414;52.074;5.126;2024-01-30T03:10:01;14.48;;;8.70;;
20511;SDS011;10414;52.074;5.126;2024-01-30T03:12:28;16.63;;;8.85;;
20511;SDS011;10414;52.074;5.126;2024-01-30T03:14:56;15.77;;;8.88;;
20511;SDS011;10414;52.074;5.126;2024-01-30T03:17:23;17.25;;;8.70;;
20511;SDS011;10414;52.074;5.126;2024-01-30T03:19:50;16.70;;;9.25;;
20511;SDS011;10414;52.074;5.126;2024-01-30T03:22:17;15.43;;;9.13;;
20511;SDS011;10414;52.074;5.126;2024-01-30T03:24:44;19.33;;;9.55;;
20511;SDS011;10414;52.074;5.126;2024-01-30T03:27:11;16.02;;;8.65;;
20511;SDS011;10414;52.074;5.126;2024-01-30T03:29:37;13.80;;;8.02;;
20511;SDS011;10414;52.074;5.126;2024-01-30T03:32:06;19.13;;;8.73;;
20511;SDS011;10414;52.074;5.126;2024-01-30T03:34:33;16.50;;;9.07;;
20511;SDS011;10414;52.074;5.126;2024-01-30T03:36:59;15.23;;;8.35;;
20511;SDS011;10414;52.074;5.126;2024-01-30T03:39:26;15.48;;;8.20;;
20511;SDS011;10414;52.074;5.126;2024-01-30T03:41:53;15.20;;;7.90;;
20511;SDS011;10414;52.074;5.126;2024-01-30T03:44:20;14.82;;;7.97;;
20511;SDS011;10414;52.074;5.126;2024-01-30T03:46:47;17.80;;;9.15;;
20511;SDS011;10414;52.074;5.126;2024-01-30T03:49:15;15.68;;;8.35;;
20511;SDS011;10414;52.074;5.126;2024-01-30T03:51:42;18.10;;;7.82;;
20511;SDS011;10414;52.074;5.126;2024-01-30T03:54:09;16.80;;;8.48;;
20511;SDS011;10414;52.074;5.126;2024-01-30T03:56:36;14.48;;;8.00;;
20511;SDS011;10414;52.074;5.126;2024-01-30T03:59:03;15.20;;;8.20;;
20511;SDS011;10414;52.074;5.126;2024-01-30T04:01:30;15.90;;;8.73;;
20511;SDS011;10414;52.074;5.126;2024-01-30T04:03:57;14.45;;;7.82;;
20511;SDS011;10414;52.074;5.126;2024-01-30T04:06:25;14.73;;;7.97;;
20511;SDS011;10414;52.074;5.126;2024-01-30T04:08:52;16.75;;;9.07;;
20511;SDS011;10414;52.074;5.126;2024-01-30T04:11:19;16.65;;;8.80;;
20511;SDS011;10414;52.074;5.126;2024-01-30T04:13:46;17.90;;;8.80;;
20511;SDS011;10414;52.074;5.126;2024-01-30T04:16:19;19.42;;;8.60;;
20511;SDS011;10414;52.074;5.126;2024-01-30T04:18:46;17.30;;;8.35;;
20511;SDS011;10414;52.074;5.126;2024-01-30T04:21:13;15.35;;;7.78;;
20511;SDS011;10414;52.074;5.126;2024-01-30T04:23:41;15.05;;;8.00;;
20511;SDS011;10414;52.074;5.126;2024-01-30T04:26:08;15.23;;;8.10;;
20511;SDS011;10414;52.074;5.126;2024-01-30T04:28:35;15.68;;;8.02;;
20511;SDS011;10414;52.074;5.126;2024-01-30T04:31:02;15.88;;;7.40;;
20511;SDS011;10414;52.074;5.126;2024-01-30T04:33:29;16.85;;;7.47;;
20511;SDS011;10414;52.074;5.126;2024-01-30T04:35:55;17.60;;;7.85;;
20511;SDS011;10414;52.074;5.126;2024-01-30T04:38:22;17.83;;;7.50;;
20511;SDS011;10414;52.074;5.126;2024-01-30T04:40:50;13.30;;;7.00;;
20511;SDS011;10414;52.074;5.126;2024-01-30T04:43:17;14.13;;;8.30;;
20511;SDS011;10414;52.074;5.126;2024-01-30T04:45:44;13.27;;;6.85;;
20511;SDS011;10414;52.074;5.126;2024-01-30T04:48:11;13.40;;;7.50;;
20511;SDS011;10414;52.074;5.126;2024-01-30T04:50:38;14.15;;;7.32;;
20511;SDS011;10414;52.074;5.126;2024-01-30T04:53:05;16.17;;;8.05;;
20511;SDS011;10414;52.074;5.126;2024-01-30T04:55:32;13.68;;;7.70;;
20511;SDS011;10414;52.074;5.126;2024-01-30T04:58:02;13.95;;;7.28;;
20511;SDS011;10414;52.074;5.126;2024-01-30T05:00:29;13.57;;;7.63;;
20511;SDS011;10414;52.074;5.126;2024-01-30T05:02:56;16.73;;;7.97;;
20511;SDS011;10414;52.074;5.126;2024-01-30T05:05:23;16.13;;;7.03;;
20511;SDS011;10414;52.074;5.126;2024-01-30T05:07:49;18.30;;;7.40;;
20511;SDS011;10414;52.074;5.126;2024-01-30T05:10:16;13.35;;;7.03;;
20511;SDS011;10414;52.074;5.126;2024-01-30T05:12:43;13.20;;;7.20;;
20511;SDS011;10414;52.074;5.126;2024-01-30T05:15:11;12.50;;;7.07;;
20511;SDS011;10414;52.074;5.126;2024-01-30T05:17:38;16.10;;;7.72;;
20511;SDS011;10414;52.074;5.126;2024-01-30T05:20:05;14.98;;;7.13;;
20511;SDS011;10414;52.074;5.126;2024-01-30T05:22:34;13.68;;;7.50;;
20511;SDS011;10414;52.074;5.126;2024-01-30T05:25:01;17.10;;;7.35;;
20511;SDS011;10414;52.074;5.126;2024-01-30T05:27:28;13.77;;;7.30;;
20511;SDS011;10414;52.074;5.126;2024-01-30T05:29:55;12.27;;;6.75;;
20511;SDS011;10414;52.074;5.126;2024-01-30T05:32:23;14.85;;;7.53;;
20511;SDS011;10414;52.074;5.126;2024-01-30T05:34:50;14.80;;;7.50;;
20511;SDS011;10414;52.074;5.126;2024-01-30T05:37:17;14.90;;;7.53;;
20511;SDS011;10414;52.074;5.126;2024-01-30T05:39:44;14.75;;;7.50;;
20511;SDS011;10414;52.074;5.126;2024-01-30T05:42:11;13.93;;;7.05;;
20511;SDS011;10414;52.074;5.126;2024-01-30T05:44:38;13.52;;;6.63;;
20511;SDS011;10414;52.074;5.126;2024-01-30T05:47:04;13.60;;;7.28;;
20511;SDS011;10414;52.074;5.126;2024-01-30T05:49:32;12.55;;;6.93;;
20511;SDS011;10414;52.074;5.126;2024-01-30T05:51:59;14.85;;;7.22;;
20511;SDS011;10414;52.074;5.126;2024-01-30T05:54:28;15.50;;;7.78;;
20511;SDS011;10414;52.074;5.126;2024-01-30T05:56:55;13.57;;;7.18;;
20511;SDS011;10414;52.074;5.126;2024-01-30T05:59:20;14.30;;;6.70;;
20511;SDS011;10414;52.074;5.126;2024-01-30T06:01:47;15.23;;;7.40;;
20511;SDS011;10414;52.074;5.126;2024-01-30T06:04:14;13.38;;;6.88;;
20511;SDS011;10414;52.074;5.126;2024-01-30T06:06:42;10.82;;;6.55;;
20511;SDS011;10414;52.074;5.126;2024-01-30T06:09:09;17.58;;;6.70;;
20511;SDS011;10414;52.074;5.126;2024-01-30T06:11:37;13.15;;;7.20;;
20511;SDS011;10414;52.074;5.126;2024-01-30T06:14:04;14.02;;;6.60;;
20511;SDS011;10414;52.074;5.126;2024-01-30T06:16:31;16.00;;;6.90;;
20511;SDS011;10414;52.074;5.126;2024-01-30T06:18:58;12.80;;;6.78;;
20511;SDS011;10414;52.074;5.126;2024-01-30T06:21:25;13.40;;;6.75;;
20511;SDS011;10414;52.074;5.126;2024-01-30T06:23:53;14.95;;;6.80;;
20511;SDS011;10414;52.074;5.126;2024-01-30T06:26:20;17.85;;;7.07;;
20511;SDS011;10414;52.074;5.126;2024-01-30T06:28:47;14.90;;;6.78;;
20511;SDS011;10414;52.074;5.126;2024-01-30T06:31:14;12.95;;;6.45;;
20511;SDS011;10414;52.074;5.126;2024-01-30T06:33:41;16.95;;;6.97;;
20511;SDS011;10414;52.074;5.126;2024-01-30T06:36:08;13.40;;;6.32;;
20511;SDS011;10414;52.074;5.126;2024-01-30T06:38:35;12.15;;;6.18;;
20511;SDS011;10414;52.074;5.126;2024-01-30T06:41:03;10.70;;;5.78;;
20511;SDS011;10414;52.074;5.126;2024-01-30T06:43:30;12.32;;;5.82;;
20511;SDS011;10414;52.074;5.126;2024-01-30T06:45:57;14.00;;;6.78;;
20511;SDS011;10414;52.074;5.126;2024-01-30T06:48:24;12.75;;;7.03;;
20511;SDS011;10414;52.074;5.126;2024-01-30T06:50:52;13.20;;;6.95;;
20511;SDS011;10414;52.074;5.126;2024-01-30T06:53:20;14.55;;;6.72;;
20511;SDS011;10414;52.074;5.126;2024-01-30T06:55:46;13.80;;;6.80;;
20511;SDS011;10414;52.074;5.126;2024-01-30T06:58:15;12.23;;;6.38;;
20511;SDS011;10414;52.074;5.126;2024-01-30T07:00:41;18.00;;;6.50;;
20511;SDS011;10414;52.074;5.126;2024-01-30T07:03:08;15.52;;;6.13;;
20511;SDS011;10414;52.074;5.126;2024-01-30T07:05:35;11.07;;;6.13;;
20511;SDS011;10414;52.074;5.126;2024-01-30T07:08:02;16.38;;;7.03;;
20511;SDS011;10414;52.074;5.126;2024-01-30T07:10:29;14.75;;;6.47;;
20511;SDS011;10414;52.074;5.126;2024-01-30T07:12:56;14.98;;;6.38;;
20511;SDS011;10414;52.074;5.126;2024-01-30T07:15:24;13.13;;;6.38;;
20511;SDS011;10414;52.074;5.126;2024-01-30T07:17:51;14.52;;;6.70;;
20511;SDS011;10414;52.074;5.126;2024-01-30T07:20:18;13.80;;;6.47;;
20511;SDS011;10414;52.074;5.126;2024-01-30T07:22:45;12.65;;;5.95;;
20511;SDS011;10414;52.074;5.126;2024-01-30T07:25:12;18.98;;;7.18;;
20511;SDS011;10414;52.074;5.126;2024-01-30T07:27:39;12.63;;;6.07;;
20511;SDS011;10414;52.074;5.126;2024-01-30T07:30:06;13.82;;;6.60;;
20511;SDS011;10414;52.074;5.126;2024-01-30T07:32:35;16.17;;;6.57;;
20511;SDS011;10414;52.074;5.126;2024-01-30T07:35:02;14.30;;;6.95;;
20511;SDS011;10414;52.074;5.126;2024-01-30T07:37:29;17.75;;;7.15;;
20511;SDS011;10414;52.074;5.126;2024-01-30T07:39:56;16.30;;;7.00;;
20511;SDS011;10414;52.074;5.126;2024-01-30T07:42:23;13.07;;;6.30;;
20511;SDS011;10414;52.074;5.126;2024-01-30T07:44:50;12.60;;;6.50;;
20511;SDS011;10414;52.074;5.126;2024-01-30T07:47:17;15.80;;;6.82;;
20511;SDS011;10414;52.074;5.126;2024-01-30T07:49:45;16.40;;;6.55;;
20511;SDS011;10414;52.074;5.126;2024-01-30T07:52:12;13.68;;;6.65;;
20511;SDS011;10414;52.074;5.126;2024-01-30T07:54:48;13.77;;;6.78;;
20511;SDS011;10414;52.074;5.126;2024-01-30T07:57:15;15.55;;;6.13;;
20511;SDS011;10414;52.074;5.126;2024-01-30T07:59:42;13.93;;;6.32;;
20511;SDS011;10414;52.074;5.126;2024-01-30T08:02:10;13.70;;;6.25;;
20511;SDS011;10414;52.074;5.126;2024-01-30T08:04:38;11.90;;;6.50;;
20511;SDS011;10414;52.074;5.126;2024-01-30T08:07:06;15.35;;;6.85;;
20511;SDS011;10414;52.074;5.126;2024-01-30T08:09:33;15.13;;;7.20;;
20511;SDS011;10414;52.074;5.126;2024-01-30T08:12:00;12.63;;;6.57;;
20511;SDS011;10414;52.074;5.126;2024-01-30T08:14:26;15.55;;;7.15;;
20511;SDS011;10414;52.074;5.126;2024-01-30T08:16:53;13.65;;;6.68;;
20511;SDS011;10414;52.074;5.126;2024-01-30T08:19:20;16.95;;;6.53;;
20511;SDS011;10414;52.074;5.126;2024-01-30T08:21:47;12.88;;;6.68;;
20511;SDS011;10414;52.074;5.126;2024-01-30T08:24:15;14.18;;;6.32;;
20511;SDS011;10414;52.074;5.126;2024-01-30T08:26:42;15.30;;;6.65;;
20511;SDS011;10414;52.074;5.126;2024-01-30T08:29:09;15.73;;;6.78;;
20511;SDS011;10414;52.074;5.126;2024-01-30T08:31:36;12.23;;;6.05;;
20511;SDS011;10414;52.074;5.126;2024-01-30T08:34:02;17.27;;;7.05;;
20511;SDS011;10414;52.074;5.126;2024-01-30T08:36:29;11.73;;;6.00;;
20511;SDS011;10414;52.074;5.126;2024-01-30T08:38:56;13.05;;;6.70;;
20511;SDS011;10414;52.074;5.126;2024-01-30T08:41:25;17.67;;;7.13;;
20511;SDS011;10414;52.074;5.126;2024-01-30T08:43:51;17.10;;;6.18;;
20511;SDS011;10414;52.074;5.126;2024-01-30T08:46:19;13.65;;;6.30;;
20511;SDS011;10414;52.074;5.126;2024-01-30T08:48:46;14.93;;;6.45;;
20511;SDS011;10414;52.074;5.126;2024-01-30T08:51:13;15.65;;;7.03;;
20511;SDS011;10414;52.074;5.126;2024-01-30T08:53:40;14.32;;;6.15;;
20511;SDS011;10414;52.074;5.126;2024-01-30T08:56:08;15.85;;;5.75;;
20511;SDS011;10414;52.074;5.126;2024-01-30T08:58:36;13.90;;;6.50;;
20511;SDS011;10414;52.074;5.126;2024-01-30T09:01:03;13.85;;;6.22;;
20511;SDS011;10414;52.074;5.126;2024-01-30T09:03:30;15.80;;;6.95;;
20511;SDS011;10414;52.074;5.126;2024-01-30T09:05:57;13.90;;;6.70;;
20511;SDS011;10414;52.074;5.126;2024-01-30T09:08:24;12.90;;;6.45;;
20511;SDS011;10414;52.074;5.126;2024-01-30T09:10:51;15.63;;;6.18;;
20511;SDS011;10414;52.074;5.126;2024-01-30T09:13:18;14.13;;;6.50;;
20511;SDS011;10414;52.074;5.126;2024-01-30T09:15:46;16.75;;;6.72;;
20511;SDS011;10414;52.074;5.126;2024-01-30T09:18:13;14.50;;;6.95;;
20511;SDS011;10414;52.074;5.126;2024-01-30T09:20:40;13.88;;;6.10;;
20511;SDS011;10414;52.074;5.126;2024-01-30T09:23:07;15.32;;;6.35;;
20511;SDS011;10414;52.074;5.126;2024-01-30T09:25:34;15.02;;;6.45;;
20511;SDS011;10414;52.074;5.126;2024-01-30T09:28:00;12.68;;;6.47;;
20511;SDS011;10414;52.074;5.126;2024-01-30T09:30:27;14.93;;;6.50;;
20511;SDS011;10414;52.074;5.126;2024-01-30T09:32:55;14.50;;;6.80;;
20511;SDS011;10414;52.074;5.126;2024-01-30T09:35:22;12.98;;;5.90;;
20511;SDS011;10414;52.074;5.126;2024-01-30T09:37:49;12.50;;;6.25;;
20511;SDS011;10414;52.074;5.126;2024-01-30T09:40:16;13.65;;;6.47;;
20511;SDS011;10414;52.074;5.126;2024-01-30T09:42:44;14.93;;;6.60;;
20511;SDS011;10414;52.074;5.126;2024-01-30T09:45:15;20.15;;;7.05;;
20511;SDS011;10414;52.074;5.126;2024-01-30T09:47:45;15.50;;;6.70;;
20511;SDS011;10414;52.074;5.126;2024-01-30T09:50:14;11.73;;;6.00;;
20511;SDS011;10414;52.074;5.126;2024-01-30T09:52:42;17.00;;;6.43;;
20511;SDS011;10414;52.074;5.126;2024-01-30T09:55:10;13.30;;;6.68;;
20511;SDS011;10414;52.074;5.126;2024-01-30T09:57:37;13.32;;;6.57;;
20511;SDS011;10414;52.074;5.126;2024-01-30T10:00:04;13.98;;;6.57;;
20511;SDS011;10414;52.074;5.126;2024-01-30T10:02:34;15.40;;;6.57;;
20511;SDS011;10414;52.074;5.126;2024-01-30T10:05:01;13.27;;;6.53;;
20511;SDS011;10414;52.074;5.126;2024-01-30T10:07:29;11.57;;;6.47;;
20511;SDS011;10414;52.074;5.126;2024-01-30T10:09:57;13.77;;;6.50;;
20511;SDS011;10414;52.074;5.126;2024-01-30T10:12:26;15.07;;;6.57;;
20511;SDS011;10414;52.074;5.126;2024-01-30T10:14:55;11.25;;;6.47;;
20511;SDS011;10414;52.074;5.126;2024-01-30T10:17:24;15.35;;;6.43;;
20511;SDS011;10414;52.074;5.126;2024-01-30T10:19:52;12.30;;;6.40;;
20511;SDS011;10414;52.074;5.126;2024-01-30T10:22:19;14.05;;;5.82;;
20511;SDS011;10414;52.074;5.126;2024-01-30T10:24:47;13.63;;;6.28;;
20511;SDS011;10414;52.074;5.126;2024-01-30T10:27:14;11.90;;;5.70;;
20511;SDS011;10414;52.074;5.126;2024-01-30T10:29:41;12.23;;;6.22;;
20511;SDS011;10414;52.074;5.126;2024-01-30T10:32:08;17.30;;;6.35;;
20511;SDS011;10414;52.074;5.126;2024-01-30T10:34:35;14.55;;;6.30;;
20511;SDS011;10414;52.074;5.126;2024-01-30T10:37:06;14.15;;;6.68;;
20511;SDS011;10414;52.074;5.126;2024-01-30T10:39:38;15.00;;;6.18;;
20511;SDS011;10414;52.074;5.126;2024-01-30T10:42:07;11.50;;;6.20;;
20511;SDS011;10414;52.074;5.126;2024-01-30T10:44:39;13.93;;;6.43;;
20511;SDS011;10414;52.074;5.126;2024-01-30T10:47:13;20.15;;;6.35;;
20511;SDS011;10414;52.074;5.126;2024-01-30T10:49:47;11.80;;;5.05;;
20511;SDS011;10414;52.074;5.126;2024-01-30T10:52:14;12.27;;;4.80;;
20511;SDS011;10414;52.074;5.126;2024-01-30T10:54:43;11.13;;;4.78;;
20511;SDS011;10414;52.074;5.126;2024-01-30T10:57:12;10.35;;;4.38;;
20511;SDS011;10414;52.074;5.126;2024-01-30T10:59:41;11.00;;;4.82;;
20511;SDS011;10414;52.074;5.126;2024-01-30T11:02:09;9.43;;;4.28;;
20511;SDS011;10414;52.074;5.126;2024-01-30T11:04:37;10.95;;;4.70;;
20511;SDS011;10414;52.074;5.126;2024-01-30T11:07:13;10.55;;;3.58;;
20511;SDS011;10414;52.074;5.126;2024-01-30T11:09:47;6.35;;;2.80;;
20511;SDS011;10414;52.074;5.126;2024-01-30T11:12:16;9.63;;;3.38;;
20511;SDS011;10414;52.074;5.126;2024-01-30T11:14:47;9.85;;;2.85;;
20511;SDS011;10414;52.074;5.126;2024-01-30T11:17:14;9.57;;;2.83;;
20511;SDS011;10414;52.074;5.126;2024-01-30T11:19:41;9.65;;;2.45;;
20511;SDS011;10414;52.074;5.126;2024-01-30T11:22:08;6.10;;;2.33;;
20511;SDS011;10414;52.074;5.126;2024-01-30T11:24:38;5.38;;;1.75;;
20511;SDS011;10414;52.074;5.126;2024-01-30T11:27:07;6.40;;;1.83;;
20511;SDS011;10414;52.074;5.126;2024-01-30T11:29:36;6.20;;;1.50;;
20511;SDS011;10414;52.074;5.126;2024-01-30T11:32:03;5.30;;;1.45;;
20511;SDS011;10414;52.074;5.126;2024-01-30T11:34:32;7.85;;;1.77;;
20511;SDS011;10414;52.074;5.126;2024-01-30T11:37:02;6.38;;;1.58;;
20511;SDS011;10414;52.074;5.126;2024-01-30T11:39:32;6.80;;;1.55;;
20511;SDS011;10414;52.074;5.126;2024-01-30T11:41:59;5.15;;;1.98;;
20511;SDS011;10414;52.074;5.126;2024-01-30T11:44:28;4.97;;;1.90;;
20511;SDS011;10414;52.074;5.126;2024-01-30T11:46:57;5.18;;;1.90;;
20511;SDS011;10414;52.074;5.126;2024-01-30T11:49:23;6.00;;;1.70;;
20511;SDS011;10414;52.074;5.126;2024-01-30T11:51:50;7.45;;;2.10;;
20511;SDS011;10414;52.074;5.126;2024-01-30T11:54:19;5.93;;;1.80;;
20511;SDS011;10414;52.074;5.126;2024-01-30T11:56:46;6.22;;;1.70;;
20511;SDS011;10414;52.074;5.126;2024-01-30T11:59:13;6.72;;;2.10;;
20511;SDS011;10414;52.074;5.126;2024-01-30T12:01:40;6.85;;;2.20;;
20511;SDS011;10414;52.074;5.126;2024-01-30T12:04:08;7.28;;;2.17;;
20511;SDS011;10414;52.074;5.126;2024-01-30T12:06:35;6.70;;;2.75;;
20511;SDS011;10414;52.074;5.126;2024-01-30T12:09:02;4.97;;;1.75;;
20511;SDS011;10414;52.074;5.126;2024-01-30T12:11:30;7.43;;;2.10;;
20511;SDS011;10414;52.074;5.126;2024-01-30T12:13:57;6.68;;;1.98;;
20511;SDS011;10414;52.074;5.126;2024-01-30T12:16:24;7.13;;;1.88;;
20511;SDS011;10414;52.074;5.126;2024-01-30T12:18:58;6.93;;;2.42;;
20511;SDS011;10414;52.074;5.126;2024-01-30T12:21:27;7.25;;;1.73;;
20511;SDS011;10414;52.074;5.126;2024-01-30T12:23:55;5.97;;;1.58;;
20511;SDS011;10414;52.074;5.126;2024-01-30T12:26:23;6.65;;;1.70;;
20511;SDS011;10414;52.074;5.126;2024-01-30T12:28:50;4.97;;;1.80;;
20511;SDS011;10414;52.074;5.126;2024-01-30T12:31:24;6.80;;;1.70;;
20511;SDS011;10414;52.074;5.126;2024-01-30T12:33:52;5.35;;;1.60;;
20511;SDS011;10414;52.074;5.126;2024-01-30T12:36:19;9.88;;;2.03;;
20511;SDS011;10414;52.074;5.126;2024-01-30T12:38:47;5.20;;;2.03;;
20511;SDS011;10414;52.074;5.126;2024-01-30T12:41:14;10.45;;;2.00;;
20511;SDS011;10414;52.074;5.126;2024-01-30T12:43:41;6.15;;;1.70;;
20511;SDS011;10414;52.074;5.126;2024-01-30T12:46:08;6.53;;;1.92;;
20511;SDS011;10414;52.074;5.126;2024-01-30T12:48:35;6.18;;;1.90;;
20511;SDS011;10414;52.074;5.126;2024-01-30T12:51:02;5.28;;;1.05;;
20511;SDS011;10414;52.074;5.126;2024-01-30T12:53:29;7.93;;;1.63;;
20511;SDS011;10414;52.074;5.126;2024-01-30T12:55:57;4.68;;;1.23;;
20511;SDS011;10414;52.074;5.126;2024-01-30T12:58:24;4.43;;;1.23;;
20511;SDS011;10414;52.074;5.126;2024-01-30T13:00:51;3.17;;;1.08;;
20511;SDS011;10414;52.074;5.126;2024-01-30T13:03:19;5.50;;;0.80;;
20511;SDS011;10414;52.074;5.126;2024-01-30T13:05:46;4.22;;;0.80;;
20511;SDS011;10414;52.074;5.126;2024-01-30T13:08:13;3.65;;;0.80;;
20511;SDS011;10414;52.074;5.126;2024-01-30T13:10:39;2.03;;;0.80;;
20511;SDS011;10414;52.074;5.126;2024-01-30T13:13:08;3.10;;;0.70;;
20511;SDS011;10414;52.074;5.126;2024-01-30T13:15:35;2.80;;;0.65;;
20511;SDS011;10414;52.074;5.126;2024-01-30T13:18:02;3.90;;;0.90;;
20511;SDS011;10414;52.074;5.126;2024-01-30T13:20:30;4.18;;;0.90;;
20511;SDS011;10414;52.074;5.126;2024-01-30T13:22:57;4.28;;;0.80;;
20511;SDS011;10414;52.074;5.126;2024-01-30T13:25:23;2.95;;;0.68;;
20511;SDS011;10414;52.074;5.126;2024-01-30T13:27:50;6.22;;;0.90;;
20511;SDS011;10414;52.074;5.126;2024-01-30T13:30:19;3.90;;;1.25;;
20511;SDS011;10414;52.074;5.126;2024-01-30T13:32:46;6.53;;;1.23;;
20511;SDS011;10414;52.074;5.126;2024-01-30T13:35:13;4.78;;;0.90;;
20511;SDS011;10414;52.074;5.126;2024-01-30T13:37:40;4.75;;;0.82;;
20511;SDS011;10414;52.074;5.126;2024-01-30T13:40:07;3.90;;;0.68;;
20511;SDS011;10414;52.074;5.126;2024-01-30T13:42:35;4.75;;;0.80;;
20511;SDS011;10414;52.074;5.126;2024-01-30T13:45:02;6.32;;;1.02;;
20511;SDS011;10414;52.074;5.126;2024-01-30T13:47:30;3.55;;;0.90;;
20511;SDS011;10414;52.074;5.126;2024-01-30T13:49:57;4.78;;;1.00;;
20511;SDS011;10414;52.074;5.126;2024-01-30T13:52:24;6.38;;;1.10;;
20511;SDS011;10414;52.074;5.126;2024-01-30T13:54:52;4.68;;;1.00;;
20511;SDS011;10414;52.074;5.126;2024-01-30T13:57:19;5.10;;;1.10;;
20511;SDS011;10414;52.074;5.126;2024-01-30T13:59:46;8.40;;;1.13;;
20511;SDS011;10414;52.074;5.126;2024-01-30T14:02:13;3.75;;;1.17;;
20511;SDS011;10414;52.074;5.126;2024-01-30T14:04:41;4.60;;;1.00;;
20511;SDS011;10414;52.074;5.126;2024-01-30T14:07:08;7.00;;;1.40;;
20511;SDS011;10414;52.074;5.126;2024-01-30T14:09:35;4.70;;;1.10;;
20511;SDS011;10414;52.074;5.126;2024-01-30T14:12:02;8.73;;;1.10;;
20511;SDS011;10414;52.074;5.126;2024-01-30T14:14:29;4.50;;;0.85;;
20511;SDS011;10414;52.074;5.126;2024-01-30T14:16:56;7.30;;;1.35;;
20511;SDS011;10414;52.074;5.126;2024-01-30T14:19:23;6.78;;;1.30;;
20511;SDS011;10414;52.074;5.126;2024-01-30T14:21:51;4.80;;;1.00;;
20511;SDS011;10414;52.074;5.126;2024-01-30T14:24:18;4.65;;;1.15;;
20511;SDS011;10414;52.074;5.126;2024-01-30T14:26:45;8.70;;;1.65;;
20511;SDS011;10414;52.074;5.126;2024-01-30T14:29:11;5.03;;;1.63;;
20511;SDS011;10414;52.074;5.126;2024-01-30T14:31:38;5.78;;;1.35;;
20511;SDS011;10414;52.074;5.126;2024-01-30T14:34:05;4.95;;;1.35;;
20511;SDS011;10414;52.074;5.126;2024-01-30T14:36:33;9.50;;;2.35;;
20511;SDS011;10414;52.074;5.126;2024-01-30T14:39:01;5.13;;;1.90;;